Time;durP1;ratioP1;P1;durP2;ratioP2;P2;SDS_P1;SDS_P2;PMS_P1;PMS_P2;Temp;Humidity;BMP_temperature;BMP_pressure;BME280_temperature;BME280_humidity;BME280_pressure;Samples;Min_cycle;Max_cycle;Signal;HPM_P1;HPM_P2
2023/08/02 03:01:14;;;;;;;0.57;0.57;;;23.10;54.80;;;;;;5577066;23;45312;-84
2023/08/02 03:03:39;;;;;;;1.13;0.60;;;23.10;54.90;;;;;;4891548;28;45077;-85
2023/08/02 03:06:05;;;;;;;1.27;0.50;;;23.10;54.80;;;;;;4913641;28;45200;-81
2023/08/02 03:08:31;;;;;;;0.55;0.50;;;23.10;54.80;;;;;;4893818;28;45543;-80
2023/08/02 03:10:56;;;;;;;3.20;0.60;;;23.10;54.80;;;;;;4890213;28;45372;-85
2023/08/02 03:13:22;;;;;;;0.55;0.52;;;23.10;54.80;;;;;;4909445;28;45120;-82
2023/08/02 03:15:48;;;;;;;2.25;0.60;;;23.10;54.80;;;;;;4890544;28;44857;-80
2023/08/02 03:18:14;;;;;;;0.88;0.50;;;23.10;54.80;;;;;;4888908;28;45136;-81
2023/08/02 03:20:39;;;;;;;1.02;0.70;;;23.10;54.80;;;;;;4907774;28;45075;-80
2023/08/02 03:23:05;;;;;;;0.88;0.60;;;23.10;54.80;;;;;;4911163;28;44859;-80
2023/08/02 03:25:31;;;;;;;1.40;0.60;;;23.10;54.80;;;;;;4896321;28;44775;-82
2023/08/02 03:27:56;;;;;;;0.82;0.63;;;23.10;54.80;;;;;;4898646;28;47278;-85
2023/08/02 03:30:22;;;;;;;0.50;0.32;;;23.10;54.80;;;;;;4893779;28;44738;-86
2023/08/02 03:32:47;;;;;;;1.05;0.70;;;23.10;54.80;;;;;;4892829;28;45207;-81
2023/08/02 03:35:16;;;;;;;0.90;0.60;;;23.10;54.80;;;;;;4897814;28;45612;-85
2023/08/02 03:37:41;;;;;;;1.17;0.68;;;23.10;54.70;;;;;;4914436;28;47126;-81
2023/08/02 03:40:08;;;;;;;1.30;0.80;;;23.10;54.70;;;;;;4911202;28;45013;-84
2023/08/02 03:42:33;;;;;;;0.57;0.43;;;23.10;54.70;;;;;;4894296;28;44968;-85
2023/08/02 03:44:59;;;;;;;1.38;0.68;;;23.10;54.70;;;;;;4901307;28;45256;-86
2023/08/02 03:47:24;;;;;;;1.67;0.80;;;23.10;54.70;;;;;;4905431;28;46229;-82
2023/08/02 03:49:50;;;;;;;2.75;0.60;;;23.10;54.70;;;;;;4900982;28;44809;-83
2023/08/02 03:52:15;;;;;;;0.82;0.63;;;23.10;54.70;;;;;;4909384;28;45156;-84
2023/08/02 03:54:41;;;;;;;0.77;0.52;;;23.10;54.70;;;;;;4910539;28;45080;-81
2023/08/02 03:57:07;;;;;;;0.70;0.50;;;23.10;54.70;;;;;;4909244;28;47153;-81
2023/08/02 03:59:33;;;;;;;1.05;0.65;;;23.10;54.70;;;;;;4912206;28;45020;-81
2023/08/02 04:01:58;;;;;;;0.90;0.60;;;23.10;54.70;;;;;;4893382;28;45294;-79
2023/08/02 04:04:24;;;;;;;0.60;0.60;;;23.10;54.70;;;;;;4898596;28;44966;-82
2023/08/02 04:06:49;;;;;;;1.23;0.60;;;23.10;54.70;;;;;;4895197;28;47362;-79
2023/08/02 04:09:15;;;;;;;0.90;0.50;;;23.10;54.70;;;;;;4896717;28;45804;-81
2023/08/02 04:11:40;;;;;;;1.10;0.70;;;23.10;54.70;;;;;;4913306;28;45309;-84
2023/08/02 04:14:06;;;;;;;0.60;0.50;;;23.10;54.70;;;;;;4882843;28;45114;-85
2023/08/02 04:16:31;;;;;;;0.75;0.60;;;23.10;54.70;;;;;;4917110;28;45435;-81
2023/08/02 04:18:57;;;;;;;1.00;0.52;;;23.10;54.70;;;;;;4895854;28;45080;-81
2023/08/02 04:21:23;;;;;;;0.77;0.57;;;23.10;54.70;;;;;;4916055;28;45049;-81
2023/08/02 04:23:49;;;;;;;1.13;0.60;;;23.10;54.60;;;;;;4883659;28;45136;-79
2023/08/02 04:26:15;;;;;;;0.80;0.50;;;23.00;54.60;;;;;;4913028;28;47341;-83
2023/08/02 04:28:40;;;;;;;0.93;0.70;;;23.10;54.60;;;;;;4913181;28;45195;-80
2023/08/02 04:31:06;;;;;;;1.48;0.80;;;23.00;54.60;;;;;;4915559;28;44899;-81
2023/08/02 04:33:31;;;;;;;1.35;0.40;;;23.00;54.60;;;;;;4896772;28;45576;-80
2023/08/02 04:36:00;;;;;;;0.60;0.55;;;23.10;54.60;;;;;;4892453;28;46578;-82
2023/08/02 04:38:26;;;;;;;1.00;0.80;;;23.00;54.60;;;;;;4915624;28;44787;-80
2023/08/02 04:40:52;;;;;;;0.68;0.65;;;23.00;54.60;;;;;;4897208;28;44983;-82
2023/08/02 04:43:17;;;;;;;0.43;0.40;;;23.10;54.60;;;;;;4911051;28;44980;-81
2023/08/02 04:45:43;;;;;;;0.68;0.60;;;23.00;54.60;;;;;;4881532;28;46856;-81
2023/08/02 04:48:11;;;;;;;1.15;0.68;;;23.00;54.60;;;;;;4896194;28;44739;-80
2023/08/02 04:50:37;;;;;;;1.08;0.70;;;23.00;54.60;;;;;;4884403;28;45203;-81
2023/08/02 04:53:03;;;;;;;0.68;0.68;;;23.00;54.60;;;;;;4912645;28;45024;-80
2023/08/02 04:55:28;;;;;;;2.47;0.88;;;23.00;54.60;;;;;;4893470;28;45454;-79
2023/08/02 04:57:54;;;;;;;0.60;0.60;;;23.00;54.60;;;;;;4892364;28;45049;-80
2023/08/02 05:00:20;;;;;;;0.77;0.63;;;23.00;54.60;;;;;;4895267;28;44904;-81
2023/08/02 05:02:45;;;;;;;0.80;0.60;;;23.00;54.60;;;;;;4913770;28;45848;-80
2023/08/02 05:05:11;;;;;;;0.50;0.50;;;23.10;54.60;;;;;;4881137;28;45528;-86
2023/08/02 05:07:37;;;;;;;0.90;0.70;;;23.00;54.50;;;;;;4913156;28;44946;-80
2023/08/02 05:10:04;;;;;;;0.98;0.70;;;23.00;54.50;;;;;;4879506;28;45344;-85
2023/08/02 05:12:38;;;;;;;0.80;0.68;;;23.00;55.10;;;;;;4899568;28;45101;-81
2023/08/02 05:15:07;;;;;;;2.17;0.73;;;23.00;54.50;;;;;;4906676;28;45374;-86
2023/08/02 05:17:33;;;;;;;0.70;0.60;;;23.00;54.50;;;;;;4906554;28;45102;-82
2023/08/02 05:19:59;;;;;;;1.15;0.80;;;23.00;54.50;;;;;;4878075;28;45004;-82
2023/08/02 05:22:24;;;;;;;0.80;0.80;;;23.00;54.60;;;;;;4907628;28;44955;-80
2023/08/02 05:24:51;;;;;;;0.60;0.50;;;23.00;54.50;;;;;;4901679;28;47275;-79
2023/08/02 05:27:16;;;;;;;0.80;0.68;;;23.00;54.60;;;;;;4910838;28;44980;-82
2023/08/02 05:29:42;;;;;;;1.65;0.63;;;23.00;54.50;;;;;;4909093;28;44904;-81
2023/08/02 05:32:11;;;;;;;0.73;0.70;;;23.00;54.50;;;;;;4904274;28;45128;-79
2023/08/02 05:34:36;;;;;;;0.88;0.68;;;23.00;55.20;;;;;;4899244;28;46045;-82
2023/08/02 05:37:02;;;;;;;1.48;0.65;;;23.00;54.60;;;;;;4895340;28;44953;-83
2023/08/02 05:39:28;;;;;;;0.77;0.60;;;23.00;54.50;;;;;;4907276;28;45191;-81
2023/08/02 05:41:53;;;;;;;1.17;0.73;;;23.00;54.50;;;;;;4909617;28;44944;-79
2023/08/02 05:44:19;;;;;;;0.82;0.70;;;23.00;54.60;;;;;;4910628;28;45833;-79
2023/08/02 05:46:44;;;;;;;1.17;0.77;;;23.00;54.50;;;;;;4897614;28;44715;-80
2023/08/02 05:49:10;;;;;;;0.80;0.60;;;23.00;54.60;;;;;;4906038;28;45006;-83
2023/08/02 05:51:35;;;;;;;1.27;0.70;;;23.00;54.60;;;;;;4909321;28;45223;-82
2023/08/02 05:54:01;;;;;;;1.00;0.60;;;23.00;54.50;;;;;;4901246;28;47275;-79
2023/08/02 05:56:27;;;;;;;1.38;0.65;;;23.00;54.60;;;;;;4911007;28;44988;-82
2023/08/02 05:58:52;;;;;;;1.88;0.98;;;23.00;54.50;;;;;;4912079;28;45000;-83
2023/08/02 06:01:18;;;;;;;0.77;0.60;;;23.00;54.50;;;;;;4898271;28;45253;-83
2023/08/02 06:03:43;;;;;;;1.15;0.68;;;23.00;54.60;;;;;;4910432;28;47096;-81
2023/08/02 06:06:09;;;;;;;1.20;0.60;;;23.00;54.50;;;;;;4891218;28;45022;-83
2023/08/02 06:08:34;;;;;;;1.88;0.60;;;23.00;54.50;;;;;;4880934;28;44976;-80
2023/08/02 06:11:01;;;;;;;2.05;0.77;;;23.00;54.50;;;;;;4890688;28;45021;-81
2023/08/02 06:13:27;;;;;;;0.88;0.60;;;23.00;54.50;;;;;;4912088;28;45140;-80
2023/08/02 06:15:52;;;;;;;1.20;0.60;;;23.00;54.50;;;;;;4914098;28;45356;-81
2023/08/02 06:18:18;;;;;;;1.42;0.70;;;23.00;54.50;;;;;;4913034;28;44926;-82
2023/08/02 06:20:43;;;;;;;0.98;0.65;;;23.00;54.50;;;;;;4901916;28;45107;-83
2023/08/02 06:23:09;;;;;;;0.85;0.50;;;22.90;54.50;;;;;;4901792;28;46329;-81
2023/08/02 06:25:34;;;;;;;0.77;0.65;;;23.00;54.50;;;;;;4912402;28;45487;-83
2023/08/02 06:28:00;;;;;;;0.60;0.60;;;23.00;54.50;;;;;;4882233;28;44808;-79
2023/08/02 06:30:26;;;;;;;0.85;0.70;;;23.00;54.50;;;;;;4874966;28;45170;-83
2023/08/02 06:32:52;;;;;;;1.02;0.70;;;22.90;54.50;;;;;;4898540;28;45596;-79
2023/08/02 06:35:20;;;;;;;0.82;0.63;;;22.90;54.50;;;;;;4913013;28;44866;-82
2023/08/02 06:37:46;;;;;;;0.75;0.70;;;22.90;54.50;;;;;;4892909;28;44898;-82
2023/08/02 06:40:11;;;;;;;0.70;0.60;;;22.90;54.40;;;;;;4894470;28;44747;-79
2023/08/02 06:42:40;;;;;;;2.97;0.90;;;23.00;54.50;;;;;;4892746;28;45917;-79
2023/08/02 06:45:07;;;;;;;1.17;0.85;;;22.90;54.50;;;;;;4876824;28;45375;-86
2023/08/02 06:47:32;;;;;;;0.50;0.50;;;22.90;54.50;;;;;;4890604;28;45298;-80
2023/08/02 06:49:58;;;;;;;1.48;0.50;;;22.90;54.50;;;;;;4896081;28;45333;-80
2023/08/02 06:52:24;;;;;;;1.23;0.60;;;22.90;54.50;;;;;;4912869;28;45535;-83
2023/08/02 06:54:53;;;;;;;1.20;0.63;;;23.00;54.50;;;;;;4890670;28;45142;-80
2023/08/02 06:57:22;;;;;;;1.35;0.60;;;23.00;54.50;;;;;;4905257;28;44775;-79
2023/08/02 06:59:49;;;;;;;1.38;1.00;;;23.00;54.50;;;;;;4893766;28;44771;-83
2023/08/02 07:02:15;;;;;;;0.50;0.50;;;23.00;54.50;;;;;;4888913;28;47443;-84
2023/08/02 07:04:40;;;;;;;0.55;0.55;;;22.90;54.50;;;;;;4898928;28;45406;-82
2023/08/02 07:07:06;;;;;;;0.70;0.60;;;23.00;54.50;;;;;;4909201;28;44822;-81
2023/08/02 07:09:32;;;;;;;1.52;0.70;;;23.00;54.50;;;;;;4896750;28;45856;-83
2023/08/02 07:11:58;;;;;;;0.88;0.80;;;22.90;54.50;;;;;;4909713;28;45981;-79
2023/08/02 07:14:24;;;;;;;1.27;0.70;;;22.90;54.50;;;;;;4895396;28;44964;-82
2023/08/02 07:16:49;;;;;;;1.10;0.77;;;22.90;54.40;;;;;;4893965;28;45686;-80
2023/08/02 07:19:15;;;;;;;0.65;0.50;;;23.00;54.50;;;;;;4900569;28;45415;-82
2023/08/02 07:21:41;;;;;;;0.80;0.63;;;22.90;54.50;;;;;;4895904;28;46352;-83
2023/08/02 07:24:06;;;;;;;0.90;0.90;;;22.90;54.50;;;;;;4916986;28;44968;-81
2023/08/02 07:26:32;;;;;;;0.63;0.63;;;22.90;54.50;;;;;;4911494;28;44791;-80
2023/08/02 07:28:57;;;;;;;1.15;0.70;;;22.90;54.50;;;;;;4898025;28;44914;-82
2023/08/02 07:31:23;;;;;;;0.98;0.80;;;22.90;54.50;;;;;;4891427;28;45137;-81
2023/08/02 07:33:48;;;;;;;1.50;0.73;;;22.90;54.50;;;;;;4896775;28;44937;-81
2023/08/02 07:36:16;;;;;;;1.10;0.77;;;22.90;54.50;;;;;;4893244;28;44929;-80
2023/08/02 07:38:42;;;;;;;1.38;0.88;;;22.90;54.50;;;;;;4894397;28;45230;-79
2023/08/02 07:41:08;;;;;;;1.75;0.73;;;22.90;54.50;;;;;;4895001;28;46808;-80
2023/08/02 07:43:33;;;;;;;1.20;0.60;;;22.90;54.50;;;;;;4899142;28;45015;-84
2023/08/02 07:45:59;;;;;;;1.67;0.82;;;22.90;54.50;;;;;;4903829;28;45044;-80
2023/08/02 07:48:25;;;;;;;0.60;0.60;;;22.90;54.50;;;;;;4873061;23;46095;-46
2023/08/02 07:50:50;;;;;;;0.90;0.60;;;22.90;54.50;;;;;;4850756;29;45292;-45
2023/08/02 07:53:17;;;;;;;1.42;0.88;;;22.90;54.50;;;;;;4867947;29;45427;-45
2023/08/02 07:55:42;;;;;;;1.10;0.90;;;22.90;54.60;;;;;;4853562;29;45286;-45
2023/08/02 07:58:08;;;;;;;1.60;1.10;;;22.90;54.50;;;;;;4865419;29;45286;-46
2023/08/02 08:00:33;;;;;;;0.75;0.70;;;22.90;54.50;;;;;;4839641;29;46113;-46
2023/08/02 08:02:59;;;;;;;2.92;0.80;;;22.90;54.50;;;;;;4861290;29;44893;-45
2023/08/02 08:05:25;;;;;;;1.00;0.80;;;22.90;54.50;;;;;;4851589;29;45386;-46
2023/08/02 08:07:51;;;;;;;1.92;0.68;;;22.90;54.50;;;;;;4859827;29;46672;-48
2023/08/02 08:10:17;;;;;;;0.93;0.63;;;22.90;54.60;;;;;;4855409;29;46586;-44
2023/08/02 08:12:42;;;;;;;1.45;0.90;;;22.90;54.60;;;;;;4866726;29;44666;-48
2023/08/02 08:15:09;;;;;;;0.90;0.70;;;22.90;54.60;;;;;;4868340;29;45154;-45
2023/08/02 08:17:34;;;;;;;1.25;0.80;;;22.90;54.60;;;;;;4845665;29;46205;-46
2023/08/02 08:20:07;;;;;;;0.80;0.80;;;22.90;54.50;;;;;;4854865;29;46383;-47
2023/08/02 08:22:33;;;;;;;1.92;0.90;;;22.90;54.60;;;;;;4840631;29;45240;-46
2023/08/02 08:24:58;;;;;;;0.80;0.70;;;22.90;54.60;;;;;;4872405;29;45421;-45
2023/08/02 08:27:24;;;;;;;1.65;0.88;;;22.90;54.60;;;;;;4856834;29;45867;-46
2023/08/02 08:29:49;;;;;;;1.15;0.80;;;22.90;54.60;;;;;;4864767;29;46979;-45
2023/08/02 08:32:16;;;;;;;0.50;0.50;;;22.90;54.60;;;;;;4840600;29;45425;-47
2023/08/02 08:34:42;;;;;;;1.08;0.85;;;22.90;54.60;;;;;;4870290;29;45394;-46
2023/08/02 08:37:08;;;;;;;1.30;0.80;;;22.90;54.60;;;;;;4860669;29;45097;-45
2023/08/02 08:39:34;;;;;;;1.08;0.85;;;22.90;54.60;;;;;;4852758;29;45451;-46
2023/08/02 08:42:01;;;;;;;1.42;0.90;;;22.90;54.70;;;;;;4855167;29;45196;-45
2023/08/02 08:44:27;;;;;;;1.40;1.10;;;22.90;54.60;;;;;;4867606;29;45251;-47
2023/08/02 08:46:55;;;;;;;0.65;0.63;;;22.90;54.60;;;;;;4867262;28;44881;-45
2023/08/02 08:49:20;;;;;;;1.02;0.75;;;22.90;54.60;;;;;;4895414;28;45615;-45
2023/08/02 08:51:46;;;;;;;0.80;0.80;;;22.90;54.60;;;;;;4875205;28;45400;-47
2023/08/02 08:54:17;;;;;;;0.73;0.73;;;22.90;54.60;;;;;;4901620;28;45283;-46
2023/08/02 08:56:42;;;;;;;1.05;0.90;;;22.90;54.70;;;;;;4881952;28;45320;-45
2023/08/02 08:59:08;;;;;;;1.27;0.88;;;22.90;54.70;;;;;;4899199;28;45404;-46
2023/08/02 09:01:34;;;;;;;0.93;0.80;;;22.90;54.70;;;;;;4857911;28;45281;-45
2023/08/02 09:04:00;;;;;;;1.00;0.90;;;22.90;55.10;;;;;;4897779;28;45021;-46
2023/08/02 09:06:26;;;;;;;0.75;0.65;;;22.90;54.70;;;;;;4869338;28;45292;-46
2023/08/02 09:08:52;;;;;;;1.55;1.02;;;22.90;54.70;;;;;;4881617;28;45982;-45
2023/08/02 09:11:17;;;;;;;1.10;0.80;;;22.90;54.70;;;;;;4870492;28;46194;-46
2023/08/02 09:13:43;;;;;;;1.00;0.80;;;22.90;54.70;;;;;;4887868;28;45201;-45
2023/08/02 09:16:13;;;;;;;1.38;0.80;;;22.90;54.70;;;;;;4865714;28;45295;-45
2023/08/02 09:18:44;;;;;;;1.92;0.90;;;22.90;54.70;;;;;;4873652;28;46296;-45
2023/08/02 09:21:14;;;;;;;1.30;1.00;;;22.90;54.80;;;;;;4870110;28;44709;-46
2023/08/02 09:23:48;;;;;;;1.50;1.10;;;22.90;54.80;;;;;;4884199;28;46011;-45
2023/08/02 09:26:17;;;;;;;0.93;0.70;;;22.90;54.70;;;;;;4876548;28;45237;-45
2023/08/02 09:28:59;;;;;;;1.45;0.82;;;22.90;54.80;;;;;;4877324;28;45206;-45
2023/08/02 09:31:25;;;;;;;1.80;0.93;;;22.90;54.80;;;;;;4843896;28;45935;-45
2023/08/02 09:33:51;;;;;;;0.95;0.88;;;22.90;54.80;;;;;;4880773;28;45350;-45
2023/08/02 09:36:24;;;;;;;1.40;1.00;;;22.90;54.80;;;;;;4869646;28;45231;-45
2023/08/02 09:38:56;;;;;;;1.20;1.10;;;22.90;54.80;;;;;;4886862;28;46162;-46
2023/08/02 09:41:23;;;;;;;1.40;0.93;;;22.90;54.80;;;;;;4872881;28;46800;-45
2023/08/02 09:43:50;;;;;;;1.42;0.98;;;22.90;54.80;;;;;;4883545;28;45646;-45
2023/08/02 09:46:28;;;;;;;1.42;1.08;;;22.90;54.80;;;;;;4871320;28;45250;-46
2023/08/02 09:48:55;;;;;;;1.75;1.13;;;22.90;54.90;;;;;;4877540;28;45257;-46
2023/08/02 09:51:21;;;;;;;1.67;1.25;;;22.90;54.80;;;;;;4870874;28;45519;-46
2023/08/02 09:53:53;;;;;;;0.90;0.90;;;22.90;54.90;;;;;;4878770;28;45880;-47
2023/08/02 09:56:22;;;;;;;1.75;0.85;;;22.90;54.90;;;;;;4878000;28;45155;-46
2023/08/02 09:58:47;;;;;;;1.30;1.05;;;22.80;54.80;;;;;;4897846;28;46021;-46
2023/08/02 10:01:13;;;;;;;2.42;1.35;;;22.80;54.80;;;;;;4873331;28;45040;-45
2023/08/02 10:03:38;;;;;;;1.30;1.08;;;22.90;54.90;;;;;;4894469;28;45258;-44
2023/08/02 10:06:06;;;;;;;1.10;1.00;;;22.90;54.90;;;;;;4879358;28;45482;-45
2023/08/02 10:08:31;;;;;;;1.92;1.30;;;22.90;54.90;;;;;;4870676;28;47621;-44
2023/08/02 10:10:57;;;;;;;1.30;1.00;;;22.90;54.90;;;;;;4872965;28;45568;-45
2023/08/02 10:13:25;;;;;;;1.60;1.15;;;22.90;54.90;;;;;;4897977;28;45593;-45
2023/08/02 10:15:51;;;;;;;2.00;1.20;;;22.90;54.90;;;;;;4876192;28;45376;-45
2023/08/02 10:18:17;;;;;;;1.85;1.13;;;22.90;55.00;;;;;;4876593;28;45884;-46
2023/08/02 10:20:43;;;;;;;2.13;1.20;;;22.90;55.00;;;;;;4869651;28;45609;-45
2023/08/02 10:23:09;;;;;;;1.50;1.17;;;22.90;55.00;;;;;;4864319;28;46126;-45
2023/08/02 10:25:35;;;;;;;2.92;1.42;;;22.80;54.90;;;;;;4865159;28;45208;-45
2023/08/02 10:28:01;;;;;;;2.10;1.10;;;22.90;55.00;;;;;;4884185;28;45408;-46
2023/08/02 10:30:27;;;;;;;2.30;1.35;;;22.80;55.00;;;;;;4853742;28;45055;-47
2023/08/02 10:33:15;;;;;;;2.63;1.42;;;22.90;55.00;;;;;;4868769;28;45268;-45
2023/08/02 10:36:06;;;;;;;1.50;1.20;;;22.90;55.00;;;;;;4873333;28;46111;-45
2023/08/02 10:38:47;;;;;;;1.83;1.30;;;22.80;55.00;;;;;;4880541;28;45315;-45
2023/08/02 10:41:21;;;;;;;2.28;1.52;;;22.90;55.10;;;;;;4867680;28;45195;-45
2023/08/02 10:43:53;;;;;;;1.50;1.33;;;22.90;55.10;;;;;;4869950;28;45254;-46
2023/08/02 10:46:26;;;;;;;1.98;1.25;;;22.80;55.00;;;;;;4847044;28;45324;-45
2023/08/02 10:48:52;;;;;;;2.35;1.40;;;22.90;55.10;;;;;;4867875;28;45771;-45
2023/08/02 10:51:26;;;;;;;1.88;1.27;;;22.80;55.00;;;;;;4866303;28;45526;-45
2023/08/02 10:54:13;;;;;;;1.38;1.20;;;22.90;55.10;;;;;;4875665;28;45065;-47
2023/08/02 10:56:58;;;;;;;1.38;1.17;;;22.90;55.20;;;;;;4852944;28;45005;-45
2023/08/02 10:59:24;;;;;;;3.65;1.50;;;22.80;55.10;;;;;;4882848;28;45546;-45
2023/08/02 11:01:56;;;;;;;2.13;1.20;;;22.80;55.10;;;;;;4851052;28;45357;-47
2023/08/02 11:04:22;;;;;;;1.50;1.00;;;22.90;55.20;;;;;;4875143;28;45481;-47
2023/08/02 11:06:48;;;;;;;2.22;1.27;;;22.80;55.10;;;;;;4855769;28;45589;-46
2023/08/02 11:09:13;;;;;;;1.75;1.40;;;22.80;55.10;;;;;;4877390;28;45255;-46
2023/08/02 11:11:39;;;;;;;3.17;1.40;;;22.80;55.10;;;;;;4883484;28;45232;-45
2023/08/02 11:14:05;;;;;;;1.30;1.20;;;22.80;55.10;;;;;;4875424;28;44884;-46
2023/08/02 11:16:30;;;;;;;1.70;1.30;;;22.80;55.10;;;;;;4854140;28;45274;-46
2023/08/02 11:18:56;;;;;;;1.67;1.27;;;22.80;55.10;;;;;;4875924;28;46330;-46
2023/08/02 11:21:21;;;;;;;2.53;1.50;;;22.80;55.10;;;;;;4864210;28;45215;-45
2023/08/02 11:23:49;;;;;;;2.20;1.40;;;22.80;55.20;;;;;;4874000;28;45182;-45
2023/08/02 11:26:20;;;;;;;2.40;1.45;;;22.80;55.20;;;;;;4881747;28;45377;-45
2023/08/02 11:28:52;;;;;;;3.65;1.70;;;22.80;55.20;;;;;;4871293;28;45515;-44
2023/08/02 11:31:18;;;;;;;3.10;1.50;;;22.80;55.20;;;;;;4836210;28;48037;-45
2023/08/02 11:33:43;;;;;;;2.10;1.40;;;22.80;55.30;;;;;;4865829;28;45746;-44
2023/08/02 11:36:09;;;;;;;1.45;1.20;;;22.80;55.20;;;;;;4859143;28;45388;-43
2023/08/02 11:38:37;;;;;;;1.70;1.50;;;22.80;55.20;;;;;;4874590;28;46046;-43
2023/08/02 11:41:03;;;;;;;2.05;1.30;;;22.80;55.20;;;;;;4865411;28;46004;-44
2023/08/02 11:43:35;;;;;;;1.88;1.40;;;22.80;55.30;;;;;;4873107;28;46484;-44
2023/08/02 11:46:12;;;;;;;2.40;1.40;;;22.80;55.30;;;;;;4866952;28;47190;-45
2023/08/02 11:48:37;;;;;;;1.80;1.20;;;22.80;55.30;;;;;;4874465;28;45494;-43
2023/08/02 11:51:03;;;;;;;2.33;1.50;;;22.80;55.30;;;;;;4883284;28;45321;-44
2023/08/02 11:53:29;;;;;;;1.95;1.25;;;22.80;55.30;;;;;;4902175;28;45294;-44
2023/08/02 11:55:54;;;;;;;2.22;1.30;;;22.80;55.30;;;;;;4869064;28;45836;-44
2023/08/02 11:58:20;;;;;;;1.40;1.13;;;22.80;55.30;;;;;;4879205;28;46911;-44
2023/08/02 12:00:45;;;;;;;1.55;1.10;;;22.80;55.30;;;;;;4873985;28;45598;-43
2023/08/02 12:03:12;;;;;;;2.70;1.42;;;22.80;55.30;;;;;;4866397;28;45332;-44
2023/08/02 12:05:38;;;;;;;2.60;1.52;;;22.80;55.40;;;;;;4855747;28;45431;-44
2023/08/02 12:08:14;;;;;;;1.60;1.10;;;22.80;55.40;;;;;;4883829;28;45154;-43
2023/08/02 12:10:40;;;;;;;2.35;1.45;;;22.80;55.40;;;;;;4864863;28;45323;-44
2023/08/02 12:13:14;;;;;;;1.67;1.30;;;22.80;55.40;;;;;;4889983;28;45380;-43
2023/08/02 12:15:59;;;;;;;2.20;1.42;;;22.80;55.40;;;;;;4851401;28;45263;-44
2023/08/02 12:18:25;;;;;;;1.60;1.30;;;22.80;55.40;;;;;;4875172;28;46066;-43
2023/08/02 12:20:50;;;;;;;1.58;1.30;;;22.80;55.40;;;;;;4860057;28;45784;-44
2023/08/02 12:23:32;;;;;;;1.20;1.08;;;22.80;55.40;;;;;;4882982;28;45252;-43
2023/08/02 12:25:58;;;;;;;1.95;1.30;;;22.80;55.40;;;;;;4870691;28;45409;-44
2023/08/02 12:28:23;;;;;;;1.48;1.15;;;22.80;55.40;;;;;;4879360;28;45649;-44
2023/08/02 12:31:04;;;;;;;2.90;1.75;;;22.80;55.40;;;;;;4851590;28;45258;-44
2023/08/02 12:33:33;;;;;;;2.05;1.30;;;22.80;55.50;;;;;;4877065;28;45828;-45
2023/08/02 12:35:59;;;;;;;1.90;1.35;;;22.80;55.50;;;;;;4867505;28;45626;-44
2023/08/02 12:38:29;;;;;;;1.80;1.30;;;22.80;55.50;;;;;;4879502;28;45134;-45
2023/08/02 12:40:58;;;;;;;1.73;1.30;;;22.80;55.50;;;;;;4865301;28;45193;-43
2023/08/02 12:43:24;;;;;;;2.00;1.30;;;22.80;55.50;;;;;;4874343;28;45349;-43
2023/08/02 12:45:50;;;;;;;2.28;1.45;;;22.80;55.50;;;;;;4853704;28;45432;-43
2023/08/02 12:48:16;;;;;;;2.28;1.67;;;22.80;55.50;;;;;;4874414;28;45166;-43
2023/08/02 12:50:42;;;;;;;2.55;1.20;;;22.80;55.50;;;;;;4877816;28;45372;-45
2023/08/02 12:53:07;;;;;;;2.05;1.33;;;22.80;55.50;;;;;;4881814;28;44889;-44
2023/08/02 12:55:33;;;;;;;1.50;1.20;;;22.80;55.60;;;;;;4869843;28;45257;-45
2023/08/02 12:57:59;;;;;;;1.70;1.25;;;22.80;55.50;;;;;;4879097;28;45292;-43
2023/08/02 13:00:25;;;;;;;2.05;1.38;;;22.80;55.60;;;;;;4883430;28;45391;-44
2023/08/02 13:02:51;;;;;;;1.95;1.20;;;22.80;55.60;;;;;;4865644;28;45538;-44
2023/08/02 13:05:17;;;;;;;2.22;1.40;;;22.80;56.20;;;;;;4864718;28;45458;-44
2023/08/02 13:07:42;;;;;;;3.03;1.55;;;22.80;55.60;;;;;;4876518;28;45422;-43
2023/08/02 13:10:08;;;;;;;1.33;1.10;;;22.80;55.60;;;;;;4877386;28;45212;-43
2023/08/02 13:12:35;;;;;;;2.10;1.33;;;22.80;55.60;;;;;;4877186;28;45288;-45
2023/08/02 13:15:01;;;;;;;1.83;1.10;;;22.80;55.60;;;;;;4876017;28;46304;-43
2023/08/02 13:17:27;;;;;;;3.13;1.30;;;22.80;55.60;;;;;;4852806;28;46786;-43
2023/08/02 13:19:53;;;;;;;2.00;1.40;;;22.80;55.70;;;;;;4877046;28;46006;-43
2023/08/02 13:22:20;;;;;;;1.30;1.05;;;22.80;55.70;;;;;;4898348;28;45552;-43
2023/08/02 13:24:45;;;;;;;1.63;1.15;;;22.80;55.70;;;;;;4892705;28;45401;-43
2023/08/02 13:27:11;;;;;;;1.35;1.10;;;22.80;55.70;;;;;;4863272;28;45991;-43
2023/08/02 13:29:37;;;;;;;1.70;1.13;;;22.70;55.70;;;;;;4885584;28;45404;-43
2023/08/02 13:32:02;;;;;;;1.50;1.30;;;22.80;55.70;;;;;;4864927;28;45847;-43
2023/08/02 13:34:28;;;;;;;1.77;1.27;;;22.70;55.70;;;;;;4870977;28;45325;-44
2023/08/02 13:36:53;;;;;;;1.80;1.15;;;22.80;55.70;;;;;;4840364;28;46312;-43
2023/08/02 13:39:19;;;;;;;1.38;1.10;;;22.70;55.70;;;;;;4878769;28;45727;-44
2023/08/02 13:41:44;;;;;;;2.75;1.60;;;22.70;55.70;;;;;;4863124;28;45345;-44
2023/08/02 13:44:10;;;;;;;2.00;1.42;;;22.80;55.80;;;;;;4881194;28;46113;-43
2023/08/02 13:46:36;;;;;;;2.28;1.20;;;22.80;55.80;;;;;;4865899;28;46384;-45
2023/08/02 13:49:01;;;;;;;1.75;1.40;;;22.80;55.80;;;;;;4875259;28;45549;-43
2023/08/02 13:51:27;;;;;;;1.65;1.30;;;22.70;55.80;;;;;;4856183;28;45318;-44
2023/08/02 13:53:53;;;;;;;2.15;1.45;;;22.80;55.80;;;;;;4876921;28;45527;-43
2023/08/02 13:56:19;;;;;;;1.88;1.13;;;22.70;55.80;;;;;;4866610;28;45339;-44
2023/08/02 13:58:44;;;;;;;1.70;1.25;;;22.80;55.80;;;;;;4881972;28;45212;-43
2023/08/02 14:01:10;;;;;;;2.83;1.25;;;22.70;55.80;;;;;;4860241;28;45431;-43
2023/08/02 14:03:35;;;;;;;1.50;1.15;;;22.80;55.90;;;;;;4877281;28;45913;-44
2023/08/02 14:06:03;;;;;;;1.55;1.27;;;22.80;55.80;;;;;;4860923;28;45942;-44
2023/08/02 14:08:29;;;;;;;1.42;1.15;;;22.70;55.80;;;;;;4876669;28;45446;-47
2023/08/02 14:10:55;;;;;;;2.35;1.35;;;22.80;55.90;;;;;;4862402;28;45055;-44
2023/08/02 14:13:21;;;;;;;1.50;1.30;;;22.80;55.90;;;;;;4895417;28;45536;-44
2023/08/02 14:15:46;;;;;;;1.52;1.38;;;22.80;55.90;;;;;;4858057;28;45263;-43
2023/08/02 14:18:12;;;;;;;1.55;1.05;;;22.70;55.90;;;;;;4874683;28;45384;-43
2023/08/02 14:20:37;;;;;;;2.13;1.30;;;22.70;55.90;;;;;;4868194;28;45579;-43
2023/08/02 14:23:03;;;;;;;1.15;1.05;;;22.70;55.90;;;;;;4896395;28;45216;-43
2023/08/02 14:25:28;;;;;;;1.95;1.38;;;22.70;55.90;;;;;;4857933;28;45269;-43
2023/08/02 14:27:54;;;;;;;1.70;1.20;;;22.70;55.90;;;;;;4868972;28;45286;-44
2023/08/02 14:30:20;;;;;;;1.90;1.25;;;22.80;56.00;;;;;;4863870;28;45454;-44
2023/08/02 14:32:45;;;;;;;1.48;1.05;;;22.70;56.00;;;;;;4898160;28;45679;-43
2023/08/02 14:35:11;;;;;;;1.40;1.30;;;22.70;56.60;;;;;;4869422;28;47451;-43
2023/08/02 14:37:38;;;;;;;1.58;1.40;;;22.70;56.00;;;;;;4875004;28;46599;-43
2023/08/02 14:40:07;;;;;;;2.92;1.38;;;22.70;56.00;;;;;;4877502;28;45653;-43
2023/08/02 14:42:32;;;;;;;1.77;1.48;;;22.80;56.00;;;;;;4887522;28;45186;-45
2023/08/02 14:44:58;;;;;;;2.33;1.40;;;22.80;56.00;;;;;;4881410;28;45586;-43
2023/08/02 14:47:23;;;;;;;1.45;1.20;;;22.80;56.00;;;;;;4851304;28;45810;-44
2023/08/02 14:49:49;;;;;;;1.70;1.20;;;22.80;56.10;;;;;;4876526;28;44913;-44
2023/08/02 14:52:14;;;;;;;1.85;1.40;;;22.80;56.10;;;;;;4864839;28;45138;-43
2023/08/02 14:54:40;;;;;;;1.48;1.27;;;22.80;56.10;;;;;;4879464;28;45432;-43
2023/08/02 14:57:05;;;;;;;2.55;1.20;;;22.80;56.10;;;;;;4858351;28;45365;-43
2023/08/02 14:59:32;;;;;;;1.15;0.93;;;22.80;56.10;;;;;;4880271;28;45382;-43
2023/08/02 15:01:58;;;;;;;1.30;1.00;;;22.80;56.10;;;;;;4852856;28;45395;-43
2023/08/02 15:04:23;;;;;;;1.48;1.10;;;22.80;56.10;;;;;;4880854;28;46148;-44
2023/08/02 15:06:49;;;;;;;3.17;1.65;;;22.70;56.00;;;;;;4861213;28;45460;-43
2023/08/02 15:09:15;;;;;;;3.40;1.10;;;22.80;56.10;;;;;;4880361;28;45230;-43
2023/08/02 15:11:41;;;;;;;1.75;1.30;;;22.80;56.10;;;;;;4863077;28;46420;-47
2023/08/02 15:14:07;;;;;;;1.88;1.40;;;22.70;56.10;;;;;;4866299;28;46156;-44
2023/08/02 15:16:32;;;;;;;1.08;0.98;;;22.80;56.10;;;;;;4851882;28;45246;-45
2023/08/02 15:18:58;;;;;;;1.65;1.25;;;22.70;56.10;;;;;;4868376;28;46367;-43
2023/08/02 15:21:24;;;;;;;1.88;1.65;;;22.80;56.10;;;;;;4860333;28;45544;-44
2023/08/02 15:23:50;;;;;;;2.00;1.20;;;22.80;56.10;;;;;;4869521;28;45541;-44
2023/08/02 15:26:16;;;;;;;2.58;1.02;;;22.70;56.10;;;;;;4859840;28;45381;-43
2023/08/02 15:28:41;;;;;;;2.00;1.52;;;22.70;56.10;;;;;;4877481;28;46388;-45
2023/08/02 15:31:07;;;;;;;2.10;1.50;;;22.70;56.10;;;;;;4853554;28;45271;-44
2023/08/02 15:33:33;;;;;;;2.72;1.38;;;22.70;56.10;;;;;;4866444;28;46600;-45
2023/08/02 15:35:58;;;;;;;1.42;1.33;;;22.70;56.10;;;;;;4856113;28;45348;-43
2023/08/02 15:38:24;;;;;;;1.55;1.13;;;22.70;56.10;;;;;;4873915;28;45370;-42
2023/08/02 15:40:52;;;;;;;2.53;1.48;;;22.70;56.10;;;;;;4863932;28;45166;-43
2023/08/02 15:43:18;;;;;;;2.33;1.30;;;22.70;56.10;;;;;;4883863;28;46886;-43
2023/08/02 15:45:44;;;;;;;1.13;1.00;;;22.80;56.10;;;;;;4864578;28;47747;-43